Rutland, VT

1:59 AM EDT on June 25, 2017 (GMT -0400)
Rutland State

Weather History for KRUT - February, 2014

Change the Weather History Date:

Sunday, February 16, 2014

  Actual Average Record
Temperature  
Mean Temperature 17 °F -  
Max Temperature 25 °F - 57 °F (1949)
Min Temperature 9 °F - -13 °F (2015)
Degree Days  
Heating Degree Days 48    
Month to date heating degree days 734  
Since 1 July heating degree days 5141  
Moisture  
Dew Point 3 °F    
Average Humidity 62    
Maximum Humidity 88    
Minimum Humidity 36    
Precipitation  
Precipitation 0.00 in - 0.66 in (2016)
Month to date precipitation 0.55  
Year to date precipitation 2.58  
Sea Level Pressure  
Sea Level Pressure 29.80 in    
Wind  
Wind Speed 8 mph (NW)    
Max Wind Speed 14 mph    
Max Gust Speed 22 mph    
Visibility 10 miles    
Events      
T = Trace of Precipitation, MM = Missing Value Source: NWS Daily Summary

Daily Weather History Graph

Daily Weather History Graph

Search for Another Location

Airport or City:

Trip Planner

Search our weather history database for the weather conditions in past years. The results will help you decide how hot, cold, wet, or windy it might be!

Date:

Astronomy

Feb. 16, 2014 Rise Set
Actual Time 6:48 AM EST 5:23 PM EST
Civil Twilight 6:19 AM EST 5:52 PM EST
Nautical Twilight 5:45 AM EST 6:26 PM EST
Astronomical Twilight 5:12 AM EST 6:59 PM EST
Moon 7:22 PM EST (2/16) 7:12 AM EST (2/16)
Length of Visible Light 11h 33m
Length of Day
10h 34m
Full, 97% of the Moon is Illuminated
Feb 16
Full
Feb 22
Last Quarter
Mar 1
New
Mar 8
First Quarter
Mar 16
Full

Hourly Weather History & Observations

Time (EST) Temp. Windchill Dew Point Humidity Pressure Visibility Wind Dir Wind Speed Gust Speed Precip Events Conditions
12:15 AM 21.2 °F 7.3 °F 12.2 °F 68% 29.68 in 10.0 mi NW 16.1 mph 20.7 mph N/A   Overcast
12:35 AM 19.4 °F 6.6 °F 12.2 °F 74% 29.69 in 10.0 mi NW 12.7 mph 21.9 mph N/A   Overcast
12:55 AM 19.4 °F 7.2 °F 12.2 °F 74% 29.69 in 10.0 mi NNW 11.5 mph 20.7 mph N/A   Mostly Cloudy
1:15 AM 19.4 °F 6.6 °F 12.2 °F 74% 29.69 in 10.0 mi NNW 12.7 mph 20.7 mph N/A   Mostly Cloudy
1:35 AM 17.6 °F 5.0 °F 14.0 °F 86% 29.69 in 10.0 mi North 11.5 mph 17.3 mph N/A   Overcast
1:55 AM 17.6 °F 7.3 °F 12.2 °F 79% 29.69 in 10.0 mi NW 8.1 mph 16.1 mph N/A   Scattered Clouds
2:15 AM 17.6 °F 7.3 °F 12.2 °F 79% 29.69 in 10.0 mi NW 8.1 mph - N/A   Scattered Clouds
2:35 AM 17.6 °F 7.3 °F 12.2 °F 79% 29.68 in 10.0 mi NW 8.1 mph - N/A   Mostly Cloudy
2:55 AM 15.8 °F 6.1 °F 12.2 °F 86% 29.68 in 10.0 mi NW 6.9 mph - N/A   Mostly Cloudy
3:15 AM 15.8 °F 5.1 °F 12.2 °F 86% 29.68 in 10.0 mi NW 8.1 mph - N/A   Scattered Clouds
3:35 AM 15.8 °F 6.1 °F 14.0 °F 93% 29.69 in 10.0 mi NW 6.9 mph - N/A   Mostly Cloudy
3:55 AM 15.8 °F 5.1 °F 12.2 °F 86% 29.69 in 10.0 mi WNW 8.1 mph 16.1 mph N/A   Overcast
4:15 AM 15.8 °F 6.1 °F 10.4 °F 79% 29.69 in 10.0 mi NW 6.9 mph - N/A   Overcast
4:35 AM 15.8 °F 5.1 °F 8.6 °F 73% 29.70 in 10.0 mi WNW 8.1 mph - N/A   Overcast
4:55 AM 15.8 °F 6.1 °F 8.6 °F 73% 29.70 in 10.0 mi NW 6.9 mph - N/A   Overcast
5:15 AM 15.8 °F 6.1 °F 8.6 °F 73% 29.71 in 10.0 mi NW 6.9 mph - N/A   Overcast
5:35 AM 15.8 °F 6.1 °F 10.4 °F 79% 29.71 in 10.0 mi WNW 6.9 mph - N/A   Overcast
5:55 AM 14.0 °F 2.0 °F 8.6 °F 79% 29.72 in 10.0 mi WNW 9.2 mph - N/A   Overcast
6:15 AM 14.0 °F 1.2 °F 6.8 °F 73% 29.73 in 10.0 mi WNW 10.4 mph - N/A   Overcast
6:35 AM 14.0 °F 3.9 °F 6.8 °F 73% 29.73 in 10.0 mi WNW 6.9 mph - N/A   Overcast
6:55 AM 14.0 °F 3.9 °F 8.6 °F 79% 29.74 in 10.0 mi WNW 6.9 mph - N/A   Overcast
7:15 AM 14.0 °F 3.9 °F 6.8 °F 73% 29.75 in 10.0 mi NW 6.9 mph - N/A   Overcast
7:35 AM 12.2 °F 1.7 °F 6.8 °F 79% 29.76 in 10.0 mi WNW 6.9 mph - N/A   Overcast
7:55 AM 12.2 °F 1.7 °F 6.8 °F 79% 29.76 in 10.0 mi NW 6.9 mph - N/A   Overcast
8:15 AM 12.2 °F 1.7 °F 3.2 °F 67% 29.77 in 10.0 mi NNW 6.9 mph - N/A   Overcast
8:35 AM 12.2 °F -0.2 °F 6.8 °F 79% 29.77 in 10.0 mi North 9.2 mph - N/A   Mostly Cloudy
8:55 AM 12.2 °F 0.7 °F 5.0 °F 73% 29.77 in 10.0 mi North 8.1 mph - N/A   Overcast
9:15 AM 12.2 °F 1.7 °F 5.0 °F 73% 29.78 in 10.0 mi North 6.9 mph - N/A   Overcast
9:35 AM 12.2 °F 0.7 °F 5.0 °F 73% 29.78 in 10.0 mi WNW 8.1 mph - N/A   Overcast
9:55 AM 14.0 °F 3.9 °F 3.2 °F 62% 29.79 in 10.0 mi West 6.9 mph - N/A   Mostly Cloudy
10:15 AM 15.8 °F 8.6 °F 3.2 °F 58% 29.80 in 10.0 mi West 4.6 mph - N/A   Overcast
10:35 AM 15.8 °F 2.1 °F 1.4 °F 53% 29.81 in 10.0 mi West 12.7 mph 17.3 mph N/A   Mostly Cloudy
10:55 AM 17.6 °F 7.3 °F -0.4 °F 45% 29.81 in 10.0 mi WNW 8.1 mph 18.4 mph N/A   Partly Cloudy
11:15 AM 17.6 °F 5.7 °F -0.4 °F 45% 29.81 in 10.0 mi West 10.4 mph 19.6 mph N/A   Clear
11:35 AM 17.6 °F 4.3 °F -0.4 °F 45% 29.81 in 10.0 mi WNW 12.7 mph - N/A   Clear
11:55 AM 19.4 °F 7.9 °F 1.4 °F 46% 29.81 in 10.0 mi WNW 10.4 mph 16.1 mph N/A   Clear
12:15 PM 19.4 °F 6.0 °F 1.4 °F 46% 29.80 in 10.0 mi WNW 13.8 mph 20.7 mph N/A   Clear
12:35 PM 19.4 °F 5.5 °F -0.4 °F 42% 29.81 in 10.0 mi WNW 15.0 mph 24.2 mph N/A   Clear
12:55 PM 21.2 °F 11.7 °F 1.4 °F 42% 29.81 in 10.0 mi WNW 8.1 mph 18.4 mph N/A   Clear
1:15 PM 21.2 °F 10.1 °F 1.4 °F 42% 29.81 in 10.0 mi NW 10.4 mph 19.6 mph N/A   Clear
1:35 PM 21.2 °F 8.9 °F -0.4 °F 39% 29.80 in 10.0 mi NW 12.7 mph 19.6 mph N/A   Clear
1:55 PM 21.2 °F 9.5 °F 1.4 °F 42% 29.80 in 10.0 mi NW 11.5 mph 19.6 mph N/A   Clear
2:15 PM 21.2 °F 14.9 °F 1.4 °F 42% 29.80 in 10.0 mi WNW 4.6 mph 17.3 mph N/A   Clear
2:35 PM 23.0 °F 13.1 °F -0.4 °F 36% 29.80 in 10.0 mi NW 9.2 mph 20.7 mph N/A   Clear
2:55 PM 23.0 °F 10.6 °F -0.4 °F 36% 29.81 in 10.0 mi WNW 13.8 mph 21.9 mph N/A   Clear
3:15 PM 23.0 °F 11.7 °F -0.4 °F 36% 29.81 in 10.0 mi WNW 11.5 mph 20.7 mph N/A   Clear
3:35 PM 23.0 °F 13.1 °F -0.4 °F 36% 29.81 in 10.0 mi WNW 9.2 mph 19.6 mph N/A   Clear
3:55 PM 23.0 °F 13.1 °F -0.4 °F 36% 29.81 in 10.0 mi WNW 9.2 mph 21.9 mph N/A   Clear
4:15 PM 23.0 °F 17.0 °F -0.4 °F 36% 29.81 in 10.0 mi WNW 4.6 mph - N/A   Clear
4:35 PM 23.0 °F 15.8 °F -0.4 °F 36% 29.82 in 10.0 mi WNW 5.8 mph - N/A   Clear
4:55 PM 23.0 °F 14.7 °F -0.4 °F 36% 29.82 in 10.0 mi WNW 6.9 mph - N/A   Clear
5:15 PM 21.2 °F 13.6 °F -0.4 °F 39% 29.83 in 10.0 mi NW 5.8 mph - N/A   Clear
5:35 PM 21.2 °F 16.4 °F -0.4 °F 39% 29.84 in 10.0 mi NNW 3.5 mph - N/A   Clear
5:55 PM 21.2 °F 13.6 °F -2.2 °F 36% 29.85 in 10.0 mi NW 5.8 mph - N/A   Clear
6:15 PM 19.4 °F 10.4 °F -2.2 °F 39% 29.86 in 10.0 mi North 6.9 mph - N/A   Clear
6:35 PM 17.6 °F 10.7 °F 1.4 °F 49% 29.87 in 10.0 mi North 4.6 mph - N/A   Clear
6:55 PM 17.6 °F 10.7 °F 1.4 °F 49% 29.88 in 10.0 mi North 4.6 mph - N/A   Clear
7:15 PM 17.6 °F 10.7 °F 1.4 °F 49% 29.88 in 10.0 mi North 4.6 mph - N/A   Clear
7:35 PM 17.6 °F 9.3 °F -0.4 °F 45% 29.89 in 10.0 mi NNW 5.8 mph - N/A   Clear
7:55 PM 17.6 °F 7.3 °F -2.2 °F 42% 29.90 in 10.0 mi NNW 8.1 mph - N/A   Clear
8:15 PM 17.6 °F 9.3 °F -0.4 °F 45% 29.91 in 10.0 mi NW 5.8 mph - N/A   Clear
8:35 PM 15.8 °F 7.2 °F -2.2 °F 45% 29.92 in 10.0 mi NNW 5.8 mph - N/A   Clear
8:55 PM 15.8 °F 4.2 °F -2.2 °F 45% 29.94 in 10.0 mi NNW 9.2 mph - N/A   Clear
9:15 PM 15.8 °F 4.2 °F -5.8 °F 38% 29.95 in 10.0 mi NW 9.2 mph 20.7 mph N/A   Clear
9:35 PM 14.0 °F 3.9 °F -5.8 °F 41% 29.95 in 10.0 mi NW 6.9 mph - N/A   Clear
9:55 PM 14.0 °F 2.9 °F -7.6 °F 38% 29.96 in 10.0 mi NW 8.1 mph - N/A   Clear
10:15 PM 12.2 °F 2.9 °F -5.8 °F 45% 29.97 in 10.0 mi WNW 5.8 mph - N/A   Clear
10:35 PM 12.2 °F 4.3 °F -5.8 °F 45% 29.98 in 10.0 mi WNW 4.6 mph - N/A   Clear
10:55 PM 10.4 °F 0.8 °F -5.8 °F 48% 29.99 in 10.0 mi NW 5.8 mph - N/A   Clear
11:15 PM 10.4 °F 4.0 °F -7.6 °F 44% 30.00 in 10.0 mi North 3.5 mph - N/A   Clear
11:35 PM 8.6 °F - -5.8 °F 52% 30.00 in 10.0 mi Calm Calm - N/A   Clear
11:55 PM 8.6 °F -1.3 °F -5.8 °F 52% 30.01 in 10.0 mi North 5.8 mph - N/A   Clear